createdAt,value
2023-04-10T00:00:12.027Z,0.00
2023-04-10T00:01:11.988Z,0.00
2023-04-10T00:02:12.072Z,0.00
2023-04-10T00:03:12.324Z,0.00
2023-04-10T00:04:12.129Z,0.00
2023-04-10T00:05:11.988Z,0.00
2023-04-10T00:06:12.127Z,0.00
2023-04-10T00:07:11.925Z,0.00
2023-04-10T00:08:12.020Z,0.00
2023-04-10T00:09:11.889Z,0.00
2023-04-10T00:10:11.940Z,0.00
2023-04-10T00:11:11.876Z,0.00
2023-04-10T00:12:11.887Z,0.00
2023-04-10T00:13:11.867Z,0.00
2023-04-10T00:14:11.937Z,0.00
2023-04-10T00:15:11.880Z,0.00
2023-04-10T00:16:11.939Z,0.00
2023-04-10T00:17:11.823Z,0.00
2023-04-10T00:18:11.821Z,0.00
2023-04-10T00:19:11.786Z,0.00
2023-04-10T00:20:11.806Z,0.00
2023-04-10T00:21:11.766Z,0.00
2023-04-10T00:22:11.885Z,0.00
2023-04-10T00:23:11.766Z,0.00
2023-04-10T00:24:11.741Z,0.00
2023-04-10T00:25:11.730Z,0.00
2023-04-10T00:26:11.772Z,0.00
2023-04-10T00:27:11.699Z,0.00
2023-04-10T00:28:11.738Z,0.00
2023-04-10T00:29:11.683Z,0.00
2023-04-10T00:30:11.682Z,0.00
2023-04-10T00:31:11.661Z,0.00
2023-04-10T00:32:11.826Z,0.00
2023-04-10T00:33:11.652Z,0.00
2023-04-10T00:34:11.723Z,0.00
2023-04-10T00:35:11.616Z,0.00
2023-04-10T00:36:11.644Z,0.00
2023-04-10T00:37:11.632Z,0.00
2023-04-10T00:38:11.608Z,0.00
2023-04-10T00:39:11.586Z,0.00
2023-04-10T00:40:11.631Z,0.00
2023-04-10T00:41:11.550Z,0.00
2023-04-10T00:42:11.666Z,0.00
2023-04-10T00:43:11.548Z,0.00
2023-04-10T00:44:11.520Z,0.00
2023-04-10T00:45:11.510Z,0.00
2023-04-10T00:46:11.549Z,0.00
2023-04-10T00:47:11.508Z,0.00
2023-04-10T00:48:11.496Z,0.00
2023-04-10T00:49:11.469Z,0.00
2023-04-10T00:50:11.477Z,0.00
2023-04-10T00:51:11.445Z,0.00
2023-04-10T00:52:11.468Z,0.00
2023-04-10T00:53:11.460Z,0.00
2023-04-10T00:54:11.541Z,0.00
2023-04-10T00:55:11.407Z,0.00
2023-04-10T00:56:11.398Z,0.00
2023-04-10T00:57:11.403Z,0.00
2023-04-10T00:58:11.368Z,0.00
2023-04-10T00:59:11.378Z,0.00
2023-04-10T01:00:11.390Z,0.00
2023-04-10T01:01:11.380Z,0.00
2023-04-10T01:02:11.421Z,0.00
2023-04-10T01:03:11.621Z,0.00
2023-04-10T01:04:11.479Z,0.00
2023-04-10T01:05:11.295Z,0.00
2023-04-10T01:06:11.323Z,0.00
2023-04-10T01:07:11.279Z,0.00
2023-04-10T01:08:11.298Z,0.00
2023-04-10T01:09:11.249Z,0.00
2023-04-10T01:10:11.259Z,0.00
2023-04-10T01:11:11.246Z,0.00
2023-04-10T01:12:11.393Z,0.00
2023-04-10T01:13:11.220Z,0.00
2023-04-10T01:14:11.197Z,0.00
2023-04-10T01:15:11.188Z,0.00
2023-04-10T01:16:11.244Z,0.00
2023-04-10T01:17:11.202Z,0.00
2023-04-10T01:18:11.195Z,0.00
2023-04-10T01:19:11.201Z,0.00
2023-04-10T01:20:11.147Z,0.00
2023-04-10T01:21:11.141Z,0.00
2023-04-10T01:22:11.114Z,0.00
2023-04-10T01:23:11.139Z,0.00
2023-04-10T01:24:11.185Z,0.00
2023-04-10T01:25:11.117Z,0.00
2023-04-10T01:26:11.084Z,0.00
2023-04-10T01:27:11.070Z,0.00
2023-04-10T01:28:11.064Z,0.00
2023-04-10T01:29:11.165Z,0.00
2023-04-10T01:30:11.175Z,0.00
2023-04-10T01:31:11.055Z,0.00
2023-04-10T01:32:11.033Z,0.00
2023-04-10T01:33:11.136Z,0.00
2023-04-10T01:34:11.142Z,0.00
2023-04-10T01:35:11.005Z,0.00
2023-04-10T01:36:11.003Z,0.00
2023-04-10T01:37:10.949Z,0.00
2023-04-10T01:38:10.971Z,0.00
2023-04-10T01:39:10.923Z,0.00
2023-04-10T01:40:11.019Z,0.00
2023-04-10T01:41:10.899Z,0.00
2023-04-10T01:42:10.946Z,0.00
2023-04-10T01:43:10.893Z,0.00
2023-04-10T01:44:11.051Z,0.00
2023-04-10T01:45:10.891Z,0.00
2023-04-10T01:46:10.911Z,0.00
2023-04-10T01:47:10.844Z,0.00
2023-04-10T01:48:10.917Z,0.00
2023-04-10T01:49:10.819Z,0.00
2023-04-10T01:50:10.822Z,0.00
2023-04-10T01:51:10.798Z,0.00
2023-04-10T01:52:10.798Z,0.00
2023-04-10T01:53:10.815Z,0.00
2023-04-10T01:54:10.766Z,0.00
2023-04-10T01:55:10.757Z,0.00
2023-04-10T01:56:10.857Z,0.00
2023-04-10T01:57:10.749Z,0.00
2023-04-10T01:58:10.778Z,0.00
2023-04-10T01:59:10.712Z,0.00
2023-04-10T02:00:10.820Z,0.00
2023-04-10T02:01:22.545Z,0.00
2023-04-10T02:02:12.084Z,0.00
2023-04-10T02:03:11.064Z,0.00
2023-04-10T02:04:10.856Z,0.00
2023-04-10T02:05:10.741Z,0.00
2023-04-10T02:06:10.669Z,0.00
2023-04-10T02:07:10.632Z,0.00
2023-04-10T02:08:10.663Z,0.00
2023-04-10T02:09:10.631Z,0.00
2023-04-10T02:10:10.600Z,0.00
2023-04-10T02:11:10.587Z,0.00
2023-04-10T02:12:10.724Z,0.00
2023-04-10T02:13:10.593Z,0.00
2023-04-10T02:14:10.559Z,0.00
2023-04-10T02:15:10.619Z,0.00
2023-04-10T02:16:10.671Z,0.00
2023-04-10T02:17:10.533Z,0.00
2023-04-10T02:18:10.566Z,0.00
2023-04-10T02:19:10.505Z,0.00
2023-04-10T02:20:10.494Z,0.00
2023-04-10T02:21:10.478Z,0.00
2023-04-10T02:22:10.537Z,0.00
2023-04-10T02:23:10.677Z,0.00
2023-04-10T02:24:10.548Z,0.00
2023-04-10T02:25:10.437Z,0.00
2023-04-10T02:26:10.534Z,0.00
2023-04-10T02:27:10.419Z,0.00
2023-04-10T02:28:11.500Z,0.00
2023-04-10T02:29:10.389Z,0.00
2023-04-10T02:30:10.972Z,0.00
2023-04-10T02:31:10.463Z,0.00
2023-04-10T02:32:10.794Z,0.00
2023-04-10T02:33:10.608Z,0.00
2023-04-10T02:34:10.932Z,0.00
2023-04-10T02:35:10.456Z,0.00
2023-04-10T02:36:10.949Z,0.00
2023-04-10T02:37:10.320Z,0.00
2023-04-10T02:38:11.492Z,0.00
2023-04-10T02:39:10.289Z,0.00
2023-04-10T02:40:10.981Z,0.00
2023-04-10T02:41:10.320Z,0.00
2023-04-10T02:42:10.628Z,0.00
2023-04-10T02:43:11.816Z,0.00
2023-04-10T02:44:10.313Z,0.00
2023-04-10T02:45:10.345Z,0.00
2023-04-10T02:46:11.085Z,0.00
2023-04-10T02:47:10.258Z,0.00
2023-04-10T02:48:10.352Z,0.00
2023-04-10T02:49:10.280Z,0.00
2023-04-10T02:50:10.642Z,0.00
2023-04-10T02:51:10.499Z,0.00
2023-04-10T02:52:10.260Z,0.00
2023-04-10T02:53:10.181Z,0.00
2023-04-10T02:54:10.545Z,0.00
2023-04-10T02:55:10.258Z,0.00
2023-04-10T02:56:10.123Z,0.00
2023-04-10T02:57:10.099Z,0.00
2023-04-10T02:58:10.376Z,0.00
2023-04-10T02:59:10.371Z,0.00
2023-04-10T03:00:11.019Z,0.00
2023-04-10T03:01:10.104Z,0.00
2023-04-10T03:02:10.665Z,0.00
2023-04-10T03:03:10.174Z,0.00
2023-04-10T03:04:10.274Z,0.00
2023-04-10T03:05:10.008Z,0.00
2023-04-10T03:06:10.062Z,0.00
2023-04-10T03:07:09.983Z,0.00
2023-04-10T03:08:10.142Z,0.00
2023-04-10T03:09:10.211Z,0.00
2023-04-10T03:10:10.343Z,0.00
2023-04-10T03:11:09.944Z,0.00
2023-04-10T03:12:09.951Z,0.00
2023-04-10T03:13:10.407Z,0.00
2023-04-10T03:14:10.544Z,0.00
2023-04-10T03:15:09.969Z,0.00
2023-04-10T03:16:10.256Z,0.00
2023-04-10T03:17:09.884Z,0.00
2023-04-10T03:18:10.023Z,0.00
2023-04-10T03:19:09.862Z,0.00
2023-04-10T03:20:09.851Z,0.00
2023-04-10T03:21:09.847Z,0.00
2023-04-10T03:22:09.843Z,0.00
2023-04-10T03:23:09.869Z,0.00
2023-04-10T03:24:09.832Z,0.00
2023-04-10T03:25:09.841Z,0.00
2023-04-10T03:26:09.882Z,0.00
2023-04-10T03:27:09.807Z,0.00
2023-04-10T03:28:10.566Z,0.00
2023-04-10T03:29:09.743Z,0.00
2023-04-10T03:30:09.989Z,0.00
2023-04-10T03:31:09.893Z,0.00
2023-04-10T03:32:10.452Z,0.00
2023-04-10T03:33:09.985Z,0.00
2023-04-10T03:34:10.730Z,0.00
2023-04-10T03:35:10.051Z,0.00
2023-04-10T03:36:09.810Z,0.00
2023-04-10T03:37:09.665Z,0.00
2023-04-10T03:38:09.807Z,0.00
2023-04-10T03:39:09.691Z,0.00
2023-04-10T03:40:09.737Z,0.00
2023-04-10T03:41:09.648Z,0.00
2023-04-10T03:42:09.717Z,0.00
2023-04-10T03:43:10.027Z,0.00
2023-04-10T03:44:10.206Z,0.00
2023-04-10T03:45:09.588Z,0.00
2023-04-10T03:46:09.612Z,0.00
2023-04-10T03:47:09.667Z,0.00
2023-04-10T03:48:09.575Z,0.00
2023-04-10T03:49:09.566Z,0.00
2023-04-10T03:50:09.691Z,0.00
2023-04-10T03:51:09.538Z,0.00
2023-04-10T03:52:09.670Z,0.00
2023-04-10T03:53:09.634Z,0.00
2023-04-10T03:54:09.501Z,0.00
2023-04-10T03:55:09.471Z,0.00
2023-04-10T03:56:09.585Z,0.00
2023-04-10T03:57:09.623Z,0.00
2023-04-10T03:58:09.765Z,0.00
2023-04-10T03:59:09.438Z,0.00
2023-04-10T04:00:09.546Z,0.00
2023-04-10T04:01:09.406Z,0.00
2023-04-10T04:02:10.088Z,0.00
2023-04-10T04:03:09.561Z,0.00
2023-04-10T04:04:09.688Z,0.00
2023-04-10T04:05:09.391Z,0.00
2023-04-10T04:06:09.612Z,0.00
2023-04-10T04:07:09.700Z,0.00
2023-04-10T04:08:09.534Z,0.00
2023-04-10T04:09:09.474Z,0.00
2023-04-10T04:10:09.403Z,0.00
2023-04-10T04:11:09.313Z,0.00
2023-04-10T04:12:09.445Z,0.00
2023-04-10T04:13:09.282Z,0.00
2023-04-10T04:14:09.377Z,0.00
2023-04-10T04:15:09.252Z,0.00
2023-04-10T04:16:09.356Z,0.00
2023-04-10T04:17:09.506Z,0.00
2023-04-10T04:18:09.593Z,0.00
2023-04-10T04:19:09.386Z,0.00
2023-04-10T04:20:09.280Z,0.00
2023-04-10T04:21:09.197Z,0.00
2023-04-10T04:22:09.249Z,0.00
2023-04-10T04:23:09.229Z,0.00
2023-04-10T04:24:09.158Z,0.00
2023-04-10T04:25:09.151Z,0.00
2023-04-10T04:26:09.192Z,0.00
2023-04-10T04:27:09.145Z,0.00
2023-04-10T04:28:09.124Z,0.00
2023-04-10T04:29:09.114Z,0.00
2023-04-10T04:30:09.118Z,0.00
2023-04-10T04:31:09.090Z,0.00
2023-04-10T04:32:09.119Z,0.00
2023-04-10T04:33:09.113Z,0.00
2023-04-10T04:34:09.220Z,0.00
2023-04-10T04:35:09.043Z,0.00
2023-04-10T04:36:09.209Z,0.00
2023-04-10T04:37:09.046Z,0.00
2023-04-10T04:38:09.017Z,0.00
2023-04-10T04:39:09.011Z,0.00
2023-04-10T04:40:09.032Z,0.00
2023-04-10T04:41:08.974Z,0.00
2023-04-10T04:42:09.081Z,5.62
2023-04-10T04:43:08.959Z,5.62
2023-04-10T04:44:09.234Z,5.62
2023-04-10T04:45:08.943Z,5.62
2023-04-10T04:46:09.025Z,5.62
2023-04-10T04:47:08.911Z,5.62
2023-04-10T04:48:09.119Z,11.25
2023-04-10T04:49:08.913Z,11.25
2023-04-10T04:50:08.915Z,11.25
2023-04-10T04:51:08.869Z,11.25
2023-04-10T04:52:08.863Z,11.25
2023-04-10T04:53:08.866Z,16.88
2023-04-10T04:54:09.003Z,16.88
2023-04-10T04:55:08.834Z,16.88
2023-04-10T04:56:08.860Z,16.88
2023-04-10T04:57:08.812Z,22.50
2023-04-10T04:58:08.865Z,22.50
2023-04-10T04:59:08.809Z,22.50
2023-04-10T05:00:08.776Z,28.12
2023-04-10T05:01:08.907Z,28.12
2023-04-10T05:02:08.847Z,33.75
2023-04-10T05:03:09.073Z,33.75
2023-04-10T05:04:09.187Z,33.75
2023-04-10T05:05:08.778Z,39.38
2023-04-10T05:06:08.735Z,39.38
2023-04-10T05:07:08.694Z,45.00
2023-04-10T05:08:08.931Z,45.00
2023-04-10T05:09:08.826Z,50.62
2023-04-10T05:10:09.194Z,56.25
2023-04-10T05:11:08.661Z,56.25
2023-04-10T05:12:08.659Z,61.88
2023-04-10T05:13:08.653Z,61.88
2023-04-10T05:14:08.785Z,67.50
2023-04-10T05:15:08.699Z,73.12
2023-04-10T05:16:08.772Z,73.12
2023-04-10T05:17:08.592Z,78.75
2023-04-10T05:18:08.923Z,78.75
2023-04-10T05:19:08.568Z,84.38
2023-04-10T05:20:08.647Z,90.00
2023-04-10T05:21:08.545Z,90.00
2023-04-10T05:22:08.546Z,95.62
2023-04-10T05:23:08.620Z,101.25
2023-04-10T05:24:08.550Z,101.25
2023-04-10T05:25:08.517Z,106.88
2023-04-10T05:26:08.690Z,106.88
2023-04-10T05:27:08.484Z,112.50
2023-04-10T05:28:08.485Z,112.50
2023-04-10T05:29:08.474Z,118.12
2023-04-10T05:30:08.520Z,123.75
2023-04-10T05:31:08.514Z,129.38
2023-04-10T05:32:09.623Z,135.00
2023-04-10T05:33:08.478Z,140.62
2023-04-10T05:34:08.466Z,140.62
2023-04-10T05:35:08.441Z,146.25
2023-04-10T05:36:08.541Z,151.88
2023-04-10T05:37:08.371Z,151.88
2023-04-10T05:38:08.406Z,157.50
2023-04-10T05:39:08.353Z,163.12
2023-04-10T05:40:08.617Z,174.38
2023-04-10T05:41:08.338Z,180.00
2023-04-10T05:42:08.354Z,185.62
2023-04-10T05:43:08.319Z,191.25
2023-04-10T05:44:08.404Z,196.88
2023-04-10T05:45:08.621Z,208.12
2023-04-10T05:46:08.365Z,213.75
2023-04-10T05:47:08.278Z,213.75
2023-04-10T05:48:08.255Z,219.38
2023-04-10T05:49:08.251Z,219.38
2023-04-10T05:50:08.284Z,219.38
2023-04-10T05:51:08.236Z,219.38
2023-04-10T05:52:08.219Z,225.00
2023-04-10T05:53:08.201Z,225.00
2023-04-10T05:54:08.987Z,230.62
2023-04-10T05:55:08.226Z,230.62
2023-04-10T05:56:08.229Z,230.62
2023-04-10T05:57:08.157Z,230.62
2023-04-10T05:58:08.170Z,225.00
2023-04-10T05:59:08.138Z,219.38
2023-04-10T06:00:08.164Z,219.38
2023-04-10T06:01:08.176Z,213.75
2023-04-10T06:02:08.265Z,219.38
2023-04-10T06:03:08.243Z,213.75
2023-04-10T06:04:08.345Z,213.75
2023-04-10T06:05:08.114Z,213.75
2023-04-10T06:06:08.084Z,213.75
2023-04-10T06:07:08.091Z,213.75
2023-04-10T06:08:08.065Z,213.75
2023-04-10T06:09:08.048Z,219.38
2023-04-10T06:10:08.021Z,225.00
2023-04-10T06:11:08.032Z,253.12
2023-04-10T06:12:08.292Z,292.50
2023-04-10T06:13:10.589Z,331.88
2023-04-10T06:14:08.043Z,360.00
2023-04-10T06:15:07.976Z,376.88
2023-04-10T06:16:08.099Z,360.00
2023-04-10T06:17:08.085Z,371.25
2023-04-10T06:18:07.973Z,393.75
2023-04-10T06:19:07.912Z,376.88
2023-04-10T06:20:07.989Z,410.62
2023-04-10T06:21:08.000Z,405.00
2023-04-10T06:22:07.927Z,444.38
2023-04-10T06:23:07.875Z,466.88
2023-04-10T06:24:07.896Z,472.50
2023-04-10T06:25:08.126Z,421.88
2023-04-10T06:26:07.944Z,416.25
2023-04-10T06:27:07.989Z,495.00
2023-04-10T06:28:07.855Z,601.88
2023-04-10T06:29:07.827Z,624.38
2023-04-10T06:30:07.823Z,658.12
2023-04-10T06:31:08.015Z,658.12
2023-04-10T06:32:07.818Z,652.50
2023-04-10T06:33:07.765Z,675.00
2023-04-10T06:34:07.806Z,714.38
2023-04-10T06:35:07.910Z,787.50
2023-04-10T06:36:07.772Z,821.25
2023-04-10T06:37:07.729Z,843.75
2023-04-10T06:38:07.739Z,838.12
2023-04-10T06:39:07.755Z,832.50
2023-04-10T06:40:07.789Z,866.25
2023-04-10T06:41:07.708Z,759.38
2023-04-10T06:42:07.755Z,714.38
2023-04-10T06:43:07.666Z,759.38
2023-04-10T06:44:07.703Z,776.25
2023-04-10T06:45:07.667Z,804.38
2023-04-10T06:46:07.730Z,849.38
2023-04-10T06:47:07.716Z,832.50
2023-04-10T06:48:07.716Z,765.00
2023-04-10T06:49:07.600Z,894.38
2023-04-10T06:50:07.587Z,888.75
2023-04-10T06:51:07.640Z,950.62
2023-04-10T06:52:07.621Z,1080.00
2023-04-10T06:53:07.593Z,1113.75
2023-04-10T06:54:07.548Z,1091.25
2023-04-10T06:55:07.636Z,1119.38
2023-04-10T06:56:07.575Z,1181.25
2023-04-10T06:57:07.516Z,1175.62
2023-04-10T06:58:07.543Z,1209.38
2023-04-10T06:59:07.492Z,1181.25
2023-04-10T07:00:07.493Z,1243.12
2023-04-10T07:01:07.520Z,1288.12
2023-04-10T07:02:07.593Z,984.38
2023-04-10T07:03:07.496Z,883.12
2023-04-10T07:04:07.530Z,1192.50
2023-04-10T07:05:07.474Z,1220.62
2023-04-10T07:06:08.259Z,1215.00
2023-04-10T07:07:07.398Z,1248.75
2023-04-10T07:08:07.456Z,1153.12
2023-04-10T07:09:07.417Z,1271.25
2023-04-10T07:10:07.401Z,1310.62
2023-04-10T07:11:07.389Z,1372.50
2023-04-10T07:12:07.372Z,1383.75
2023-04-10T07:13:07.354Z,1333.12
2023-04-10T07:14:07.345Z,1378.12
2023-04-10T07:15:07.316Z,1479.38
2023-04-10T07:16:07.409Z,1479.38
2023-04-10T07:17:07.328Z,1608.75
2023-04-10T07:18:07.345Z,1631.25
2023-04-10T07:19:07.355Z,1608.75
2023-04-10T07:20:07.309Z,1693.12
2023-04-10T07:21:07.258Z,1732.50
2023-04-10T07:22:07.335Z,1642.50
2023-04-10T07:23:07.230Z,1591.88
2023-04-10T07:24:07.239Z,1518.75
2023-04-10T07:25:07.220Z,1541.25
2023-04-10T07:26:07.262Z,1428.75
2023-04-10T07:27:07.191Z,1237.50
2023-04-10T07:28:07.186Z,1170.00
2023-04-10T07:29:07.173Z,1181.25
2023-04-10T07:30:07.212Z,1091.25
2023-04-10T07:31:07.195Z,1445.62
2023-04-10T07:32:07.293Z,1558.12
2023-04-10T07:33:07.321Z,1479.38
2023-04-10T07:34:07.132Z,1755.00
2023-04-10T07:35:07.100Z,1828.12
2023-04-10T07:36:07.207Z,1856.25
2023-04-10T07:37:07.116Z,1755.00
2023-04-10T07:38:07.139Z,1704.38
2023-04-10T07:39:07.068Z,1738.12
2023-04-10T07:40:07.048Z,1693.12
2023-04-10T07:41:07.050Z,1636.88
2023-04-10T07:42:07.036Z,1591.88
2023-04-10T07:43:07.022Z,1563.75
2023-04-10T07:44:07.239Z,1468.12
2023-04-10T07:45:07.017Z,1316.25
2023-04-10T07:46:07.514Z,1237.50
2023-04-10T07:47:07.011Z,1192.50
2023-04-10T07:48:07.080Z,1170.00
2023-04-10T07:49:08.565Z,1147.50
2023-04-10T07:50:07.252Z,1153.12
2023-04-10T07:51:06.930Z,1130.62
2023-04-10T07:52:07.053Z,1130.62
2023-04-10T07:53:06.902Z,1209.38
2023-04-10T07:54:06.942Z,1288.12
2023-04-10T07:55:06.907Z,1299.38
2023-04-10T07:56:06.950Z,1186.88
2023-04-10T07:57:06.916Z,1158.75
2023-04-10T07:58:06.992Z,1181.25
2023-04-10T07:59:06.845Z,1203.75
2023-04-10T08:00:06.873Z,1254.38
2023-04-10T08:01:06.839Z,1293.75
2023-04-10T08:02:07.030Z,1417.50
2023-04-10T08:03:07.135Z,1395.00
2023-04-10T08:04:06.962Z,1395.00
2023-04-10T08:05:06.918Z,1395.00
2023-04-10T08:06:06.821Z,1462.50
2023-04-10T08:07:06.749Z,1518.75
2023-04-10T08:08:06.769Z,1507.50
2023-04-10T08:09:06.725Z,1535.62
2023-04-10T08:10:06.834Z,1496.25
2023-04-10T08:11:06.718Z,1445.62
2023-04-10T08:12:06.798Z,1451.25
2023-04-10T08:13:06.761Z,1456.88
2023-04-10T08:14:06.694Z,1507.50
2023-04-10T08:15:06.664Z,1608.75
2023-04-10T08:16:06.792Z,1681.88
2023-04-10T08:17:06.802Z,1681.88
2023-04-10T08:18:06.716Z,1721.25
2023-04-10T08:19:06.616Z,1681.88
2023-04-10T08:20:06.614Z,1546.88
2023-04-10T08:21:06.646Z,1473.75
2023-04-10T08:22:06.609Z,1535.62
2023-04-10T08:24:07.584Z,1468.12
2023-04-10T08:25:06.599Z,1468.12
2023-04-10T08:26:06.717Z,1625.62
2023-04-10T08:27:06.576Z,1800.00
2023-04-10T08:28:08.016Z,1901.25
2023-04-10T08:29:06.925Z,2103.75
2023-04-10T08:30:08.115Z,1985.62
2023-04-10T08:31:06.894Z,1974.38
2023-04-10T08:32:07.208Z,2092.50
2023-04-10T08:33:06.589Z,2266.88
2023-04-10T08:34:06.666Z,2210.62
2023-04-10T08:35:06.655Z,2238.75
2023-04-10T08:36:09.877Z,2210.62
2023-04-10T08:37:08.184Z,2064.38
2023-04-10T08:39:06.426Z,1850.62
2023-04-10T08:40:06.522Z,1828.12
2023-04-10T08:41:06.394Z,1766.25
2023-04-10T08:42:07.174Z,1760.62
2023-04-10T08:43:06.417Z,1715.62
2023-04-10T08:44:06.459Z,1636.88
2023-04-10T08:45:06.353Z,1597.50
2023-04-10T08:46:06.461Z,1608.75
2023-04-10T08:47:06.313Z,1620.00
2023-04-10T08:48:06.408Z,1659.38
2023-04-10T08:49:06.320Z,1552.50
2023-04-10T08:50:06.354Z,1721.25
2023-04-10T08:51:08.778Z,1816.88
2023-04-10T08:52:06.320Z,1828.12
2023-04-10T08:53:06.241Z,1777.50
2023-04-10T08:54:06.362Z,1845.00
2023-04-10T08:55:06.264Z,1873.12
2023-04-10T08:56:06.279Z,1856.25
2023-04-10T08:57:06.209Z,1828.12
2023-04-10T08:58:06.254Z,1704.38
2023-04-10T08:59:06.186Z,1546.88
2023-04-10T09:01:07.177Z,1642.50
2023-04-10T09:02:06.355Z,1603.12
2023-04-10T09:03:06.282Z,1473.75
2023-04-10T09:04:06.379Z,1451.25
2023-04-10T09:05:06.140Z,1423.12
2023-04-10T09:06:06.158Z,1552.50
2023-04-10T09:07:06.154Z,1665.00
2023-04-10T09:08:06.221Z,1755.00
2023-04-10T09:09:06.086Z,1676.25
2023-04-10T09:10:06.075Z,1693.12
2023-04-10T09:11:06.076Z,1755.00
2023-04-10T09:12:06.193Z,1783.12
2023-04-10T09:13:06.051Z,1856.25
2023-04-10T09:14:06.070Z,1912.50
2023-04-10T09:15:06.027Z,1985.62
2023-04-10T09:16:06.110Z,1963.12
2023-04-10T09:17:05.991Z,1867.50
2023-04-10T09:18:06.032Z,1788.75
2023-04-10T09:19:06.451Z,1704.38
2023-04-10T09:20:05.973Z,1715.62
2023-04-10T09:21:06.016Z,1940.62
2023-04-10T09:22:05.959Z,1996.88
2023-04-10T09:23:05.933Z,2030.62
2023-04-10T09:24:05.919Z,2030.62
2023-04-10T09:25:05.902Z,2103.75
2023-04-10T09:26:06.013Z,2002.50
2023-04-10T09:27:05.927Z,1878.75
2023-04-10T09:28:05.946Z,1743.75
2023-04-10T09:29:05.860Z,1755.00
2023-04-10T09:30:05.898Z,1732.50
2023-04-10T09:31:05.920Z,1771.88
2023-04-10T09:32:05.853Z,1878.75
2023-04-10T09:33:05.854Z,2075.62
2023-04-10T09:34:05.822Z,2238.75
2023-04-10T09:35:05.852Z,2176.88
2023-04-10T09:36:05.864Z,1991.25
2023-04-10T09:37:05.794Z,1895.62
2023-04-10T09:38:05.811Z,1794.38
2023-04-10T09:39:05.760Z,1777.50
2023-04-10T09:40:05.774Z,1726.88
2023-04-10T09:41:05.758Z,1676.25
2023-04-10T09:42:05.719Z,1687.50
2023-04-10T09:43:05.706Z,1783.12
2023-04-10T09:44:05.700Z,1738.12
2023-04-10T09:45:05.703Z,1811.25
2023-04-10T09:46:05.757Z,1800.00
2023-04-10T09:47:05.676Z,1833.75
2023-04-10T09:48:05.692Z,1957.50
2023-04-10T09:49:05.650Z,2205.00
2023-04-10T09:50:05.641Z,2137.50
2023-04-10T09:51:05.657Z,2283.75
2023-04-10T09:52:05.638Z,2356.88
2023-04-10T09:53:05.619Z,2491.88
2023-04-10T09:54:05.640Z,2261.25
2023-04-10T09:55:05.583Z,2199.38
2023-04-10T09:56:05.641Z,2081.25
2023-04-10T09:57:05.566Z,2137.50
2023-04-10T09:58:05.548Z,2176.88
2023-04-10T09:59:05.553Z,2137.50
2023-04-10T10:00:05.580Z,2137.50
2023-04-10T10:01:05.562Z,2171.25
2023-04-10T10:02:05.610Z,2160.00
2023-04-10T10:03:05.761Z,2182.50
2023-04-10T10:04:05.518Z,2171.25
2023-04-10T10:05:05.657Z,2115.00
2023-04-10T10:06:05.512Z,2115.00
2023-04-10T10:07:05.455Z,2210.62
2023-04-10T10:08:05.448Z,2328.75
2023-04-10T10:09:05.441Z,2666.25
2023-04-10T10:10:05.451Z,2683.12
2023-04-10T10:11:05.433Z,2581.88
2023-04-10T10:12:05.417Z,2604.38
2023-04-10T10:13:05.401Z,2593.12
2023-04-10T10:14:05.416Z,2475.00
2023-04-10T10:15:05.375Z,2295.00
2023-04-10T10:16:05.378Z,2289.38
2023-04-10T10:17:05.362Z,2407.50
2023-04-10T10:18:05.409Z,2761.88
2023-04-10T10:19:05.325Z,3082.50
2023-04-10T10:20:05.347Z,3088.12
2023-04-10T10:21:05.382Z,2851.88
2023-04-10T10:22:05.325Z,2098.12
2023-04-10T10:23:05.297Z,1755.00
2023-04-10T10:24:05.307Z,1833.75
2023-04-10T10:25:05.268Z,2756.25
2023-04-10T10:26:05.307Z,3026.25
2023-04-10T10:27:05.393Z,3813.75
2023-04-10T10:28:05.235Z,3931.88
2023-04-10T10:29:05.229Z,4078.12
2023-04-10T10:30:16.020Z,4140.00
2023-04-10T10:31:06.283Z,4066.88
2023-04-10T10:32:05.230Z,4224.38
2023-04-10T10:33:05.247Z,3982.50
2023-04-10T10:34:05.191Z,3735.00
2023-04-10T10:35:05.237Z,3836.25
2023-04-10T10:36:05.211Z,3571.88
2023-04-10T10:37:05.157Z,3324.38
2023-04-10T10:38:05.166Z,3330.00
2023-04-10T10:39:05.169Z,3290.62
2023-04-10T10:40:05.139Z,3318.75
2023-04-10T10:41:05.108Z,3487.50
2023-04-10T10:42:05.172Z,3470.62
2023-04-10T10:43:05.077Z,3566.25
2023-04-10T10:44:05.074Z,3465.00
2023-04-10T10:45:05.065Z,3465.00
2023-04-10T10:46:05.120Z,3352.50
2023-04-10T10:47:05.110Z,3498.75
2023-04-10T10:48:05.062Z,3279.38
2023-04-10T10:49:05.023Z,2998.12
2023-04-10T10:50:05.033Z,3031.88
2023-04-10T10:51:04.986Z,3088.12
2023-04-10T10:52:05.012Z,3403.12
2023-04-10T10:53:04.976Z,3318.75
2023-04-10T10:54:04.953Z,3369.38
2023-04-10T10:55:04.959Z,3211.88
2023-04-10T10:56:04.978Z,2958.75
2023-04-10T10:57:04.935Z,2716.88
2023-04-10T10:58:04.933Z,2930.62
2023-04-10T10:59:04.907Z,3048.75
2023-04-10T11:00:04.908Z,2863.12
2023-04-10T11:01:04.948Z,2767.50
2023-04-10T11:02:04.983Z,2565.00
2023-04-10T11:03:05.014Z,2598.75
2023-04-10T11:04:05.042Z,2520.00
2023-04-10T11:05:04.853Z,2565.00
2023-04-10T11:06:04.828Z,2368.12
2023-04-10T11:07:04.814Z,2334.38
2023-04-10T11:08:04.803Z,2182.50
2023-04-10T11:09:04.791Z,2041.88
2023-04-10T11:10:05.058Z,2075.62
2023-04-10T11:11:04.792Z,2041.88
2023-04-10T11:12:04.777Z,2126.25
2023-04-10T11:13:04.756Z,2098.12
2023-04-10T11:14:04.772Z,2148.75
2023-04-10T11:15:04.765Z,2120.62
2023-04-10T11:16:04.926Z,2154.38
2023-04-10T11:17:04.851Z,2075.62
2023-04-10T11:18:04.730Z,1985.62
2023-04-10T11:19:14.265Z,1991.25
2023-04-10T11:20:05.782Z,2081.25
2023-04-10T11:21:04.689Z,2036.25
2023-04-10T11:22:04.803Z,2008.12
2023-04-10T11:23:04.654Z,2092.50
2023-04-10T11:24:04.647Z,2154.38
2023-04-10T11:25:04.640Z,2115.00
2023-04-10T11:26:04.649Z,1980.00
2023-04-10T11:27:04.611Z,2002.50
2023-04-10T11:28:04.691Z,1890.00
2023-04-10T11:29:04.590Z,1951.88
2023-04-10T11:30:04.592Z,1935.00
2023-04-10T11:31:04.550Z,1935.00
2023-04-10T11:32:04.719Z,1839.38
2023-04-10T11:33:04.647Z,1861.88
2023-04-10T11:34:04.523Z,1968.75
2023-04-10T11:35:05.270Z,2053.12
2023-04-10T11:36:04.590Z,2081.25
2023-04-10T11:37:04.488Z,2182.50
2023-04-10T11:38:04.509Z,1895.62
2023-04-10T11:39:04.500Z,1856.25
2023-04-10T11:40:04.476Z,1653.75
2023-04-10T11:41:04.625Z,1501.88
2023-04-10T11:42:04.515Z,1417.50
2023-04-10T11:43:04.417Z,1344.38
2023-04-10T11:44:04.436Z,1316.25
2023-04-10T11:45:04.439Z,1327.50
2023-04-10T11:46:04.529Z,1327.50
2023-04-10T11:47:04.444Z,1288.12
2023-04-10T11:48:04.652Z,1265.62
2023-04-10T11:49:04.360Z,1237.50
2023-04-10T11:50:04.425Z,1226.25
2023-04-10T11:51:04.340Z,1231.88
2023-04-10T11:52:04.541Z,1248.75
2023-04-10T11:53:04.316Z,1265.62
2023-04-10T11:54:04.345Z,1260.00
2023-04-10T11:55:04.313Z,1260.00
2023-04-10T11:56:04.457Z,1243.12
2023-04-10T11:57:04.385Z,1237.50
2023-04-10T11:58:04.369Z,1231.88
2023-04-10T11:59:04.280Z,1215.00
2023-04-10T12:00:04.276Z,1215.00
2023-04-10T12:01:04.273Z,1215.00
2023-04-10T12:02:04.444Z,1198.12
2023-04-10T12:03:04.417Z,1186.88
2023-04-10T12:04:04.398Z,1181.25
2023-04-10T12:05:04.386Z,1164.38
2023-04-10T12:06:04.198Z,1170.00
2023-04-10T12:07:04.179Z,1186.88
2023-04-10T12:08:04.186Z,1203.75
2023-04-10T12:09:04.165Z,1226.25
2023-04-10T12:10:04.161Z,1231.88
2023-04-10T12:11:04.200Z,1203.75
2023-04-10T12:12:04.149Z,1215.00
2023-04-10T12:13:05.325Z,1231.88
2023-04-10T12:14:04.249Z,1293.75
2023-04-10T12:15:04.246Z,1361.25
2023-04-10T12:16:04.096Z,1440.00
2023-04-10T12:17:04.078Z,1535.62
2023-04-10T12:18:04.351Z,1620.00
2023-04-10T12:19:04.047Z,1783.12
2023-04-10T12:20:04.411Z,1760.62
2023-04-10T12:21:04.736Z,1681.88
2023-04-10T12:22:04.070Z,1760.62
2023-04-10T12:23:04.000Z,1760.62
2023-04-10T12:24:04.205Z,1800.00
2023-04-10T12:25:04.507Z,1766.25
2023-04-10T12:26:03.984Z,1743.75
2023-04-10T12:27:04.050Z,1766.25
2023-04-10T12:28:03.954Z,1743.75
2023-04-10T12:29:03.939Z,1721.25
2023-04-10T12:30:04.354Z,1839.38
2023-04-10T12:31:04.080Z,1963.12
2023-04-10T12:32:03.991Z,1940.62
2023-04-10T12:33:04.112Z,2047.50
2023-04-10T12:34:04.258Z,1996.88
2023-04-10T12:35:04.060Z,2070.00
2023-04-10T12:36:03.979Z,2036.25
2023-04-10T12:37:03.848Z,1963.12
2023-04-10T12:38:03.871Z,1878.75
2023-04-10T12:39:03.830Z,1839.38